createdAt,value
2018-09-29T00:01:52.759Z,99405.73
2018-09-29T00:04:05.779Z,99410.66
2018-09-29T00:06:18.032Z,99411.03
2018-09-29T00:08:30.276Z,99412.09
2018-09-29T00:10:42.559Z,99418.40
2018-09-29T00:12:54.751Z,99425.54
2018-09-29T00:15:07.426Z,99418.17
2018-09-29T00:17:19.678Z,99426.53
2018-09-29T00:19:32.956Z,99419.11
2018-09-29T00:21:45.242Z,99421.09
2018-09-29T00:23:57.428Z,99423.70
2018-09-29T00:26:09.677Z,99420.87
2018-09-29T00:28:21.967Z,99421.95
2018-09-29T00:30:34.192Z,99421.78
2018-09-29T00:32:46.415Z,99422.88
2018-09-29T00:34:58.619Z,99425.77
2018-09-29T00:37:10.907Z,99426.70
2018-09-29T00:39:23.113Z,99425.27
2018-09-29T00:41:35.347Z,99426.38
2018-09-29T00:43:47.554Z,99427.87
2018-09-29T00:45:59.767Z,99430.53
2018-09-29T00:48:11.995Z,99430.07
2018-09-29T00:50:24.179Z,99428.86
2018-09-29T00:52:36.360Z,99418.67
2018-09-29T00:54:48.557Z,99428.81
2018-09-29T00:57:00.792Z,99425.83
2018-09-29T00:59:13.003Z,99422.13
2018-09-29T01:01:25.200Z,99412.63
2018-09-29T01:03:37.397Z,99411.47
2018-09-29T01:05:49.599Z,99418.38
2018-09-29T01:08:01.794Z,99411.10
2018-09-29T01:10:14.035Z,99405.71
2018-09-29T01:12:26.200Z,99413.39
2018-09-29T01:14:38.386Z,99411.63
2018-09-29T01:16:50.624Z,99411.63
2018-09-29T01:19:02.821Z,99412.23
2018-09-29T01:21:15.039Z,99404.04
2018-09-29T01:23:27.225Z,99403.62
2018-09-29T01:25:39.417Z,99400.42
2018-09-29T01:27:51.595Z,99402.05
2018-09-29T01:30:03.879Z,99396.56
2018-09-29T01:32:16.051Z,99393.20
2018-09-29T01:34:28.239Z,99388.89
2018-09-29T01:36:40.468Z,99383.69
2018-09-29T01:38:52.644Z,99390.66
2018-09-29T01:41:04.857Z,99390.89
2018-09-29T01:43:17.091Z,99388.94
2018-09-29T01:45:29.356Z,99380.52
2018-09-29T01:47:41.542Z,99380.14
2018-09-29T01:49:53.738Z,99380.84
2018-09-29T01:52:06.010Z,99372.16
2018-09-29T01:54:18.205Z,99374.16
2018-09-29T01:56:30.497Z,99369.63
2018-09-29T01:58:42.675Z,99362.86
2018-09-29T02:00:54.864Z,99361.82
2018-09-29T02:03:11.190Z,99358.05
2018-09-29T02:05:23.368Z,99357.64
2018-09-29T02:07:35.568Z,99356.25
2018-09-29T02:09:47.972Z,99352.43
2018-09-29T02:12:00.183Z,99353.95
2018-09-29T02:14:12.364Z,99353.26
2018-09-29T02:16:24.564Z,99345.97
2018-09-29T02:18:36.787Z,99356.38
2018-09-29T02:20:48.955Z,99355.92
2018-09-29T02:23:01.164Z,99361.45
2018-09-29T02:25:13.351Z,99363.73
2018-09-29T02:27:25.548Z,99369.62
2018-09-29T02:29:37.775Z,99372.82
2018-09-29T02:31:49.946Z,99376.95
2018-09-29T02:34:02.136Z,99375.31
2018-09-29T02:36:14.363Z,99375.59
2018-09-29T02:38:26.540Z,99376.45
2018-09-29T02:40:38.726Z,99381.23
2018-09-29T02:42:50.933Z,99375.56
2018-09-29T02:45:03.153Z,99375.43
2018-09-29T02:47:15.363Z,99371.12
2018-09-29T02:49:27.562Z,99369.30
2018-09-29T02:51:39.792Z,99367.22
2018-09-29T02:53:52.033Z,99370.88
2018-09-29T02:56:04.255Z,99375.09
2018-09-29T02:58:16.476Z,99374.52
2018-09-29T03:00:28.622Z,99374.14
2018-09-29T03:02:40.809Z,99375.06
2018-09-29T03:04:53.271Z,99382.20
2018-09-29T03:07:05.473Z,99378.30
2018-09-29T03:09:17.691Z,99370.63
2018-09-29T03:11:29.871Z,99374.74
2018-09-29T03:13:42.116Z,99373.11
2018-09-29T03:15:54.295Z,99378.86
2018-09-29T03:18:06.487Z,99383.94
2018-09-29T03:20:18.704Z,99382.77
2018-09-29T03:22:30.902Z,99378.32
2018-09-29T03:24:43.070Z,99382.22
2018-09-29T03:26:55.255Z,99383.52
2018-09-29T03:29:07.450Z,99389.39
2018-09-29T03:31:19.720Z,99391.45
2018-09-29T03:33:31.890Z,99385.41
2018-09-29T03:35:44.117Z,99382.89
2018-09-29T03:37:56.311Z,99388.72
2018-09-29T03:40:09.153Z,99387.84
2018-09-29T03:42:21.363Z,99386.33
2018-09-29T03:44:33.560Z,99390.64
2018-09-29T03:46:45.795Z,99391.85
2018-09-29T03:48:57.960Z,99392.55
2018-09-29T03:51:10.163Z,99391.91
2018-09-29T03:53:22.424Z,99396.17
2018-09-29T03:55:34.642Z,99387.52
2018-09-29T03:57:46.830Z,99388.94
2018-09-29T03:59:59.026Z,99385.70
2018-09-29T04:02:11.253Z,99380.74
2018-09-29T04:04:23.435Z,99385.33
2018-09-29T04:06:35.612Z,99376.67
2018-09-29T04:08:47.823Z,99378.46
2018-09-29T04:11:00.034Z,99383.94
2018-09-29T04:13:12.236Z,99390.09
2018-09-29T04:15:24.425Z,99386.36
2018-09-29T04:17:36.680Z,99386.34
2018-09-29T04:19:48.930Z,99387.73
2018-09-29T04:22:01.112Z,99387.09
2018-09-29T04:24:13.743Z,99389.95
2018-09-29T04:26:25.931Z,99387.09
2018-09-29T04:28:38.159Z,99392.98
2018-09-29T04:30:50.377Z,99393.81
2018-09-29T04:33:02.597Z,99397.23
2018-09-29T04:35:14.826Z,99402.33
2018-09-29T04:37:26.992Z,99400.02
2018-09-29T04:39:39.198Z,99398.45
2018-09-29T04:41:51.455Z,99401.94
2018-09-29T04:44:03.695Z,99410.61
2018-09-29T04:46:15.867Z,99405.37
2018-09-29T04:48:28.035Z,99406.97
2018-09-29T04:50:40.242Z,99411.09
2018-09-29T04:52:52.454Z,99419.30
2018-09-29T04:55:04.923Z,99418.82
2018-09-29T04:57:17.918Z,99422.73
2018-09-29T04:59:30.148Z,99424.47
2018-09-29T05:01:42.356Z,99423.09
2018-09-29T05:03:54.563Z,99426.61
2018-09-29T05:06:07.051Z,99422.34
2018-09-29T05:08:19.230Z,99423.94
2018-09-29T05:10:31.439Z,99428.78
2018-09-29T05:12:43.683Z,99422.48
2018-09-29T05:14:55.944Z,99420.05
2018-09-29T05:17:08.179Z,99416.85
2018-09-29T05:19:20.370Z,99425.82
2018-09-29T05:21:32.580Z,99418.67
2018-09-29T05:23:45.013Z,99426.22
2018-09-29T05:25:57.242Z,99422.50
2018-09-29T05:28:10.420Z,99415.77
2018-09-29T05:30:22.605Z,99421.89
2018-09-29T05:32:34.811Z,99422.24
2018-09-29T05:34:47.119Z,99425.02
2018-09-29T05:36:59.314Z,99427.34
2018-09-29T05:39:11.567Z,99427.48
2018-09-29T05:41:23.783Z,99427.67
2018-09-29T05:43:36.053Z,99425.22
2018-09-29T05:45:48.534Z,99426.08
2018-09-29T05:48:00.745Z,99422.41
2018-09-29T05:50:12.984Z,99423.14
2018-09-29T05:52:25.186Z,99420.86
2018-09-29T05:54:37.431Z,99419.13
2018-09-29T05:56:49.639Z,99421.21
2018-09-29T05:59:01.872Z,99418.97
2018-09-29T06:01:14.083Z,99416.29
2018-09-29T06:03:26.265Z,99413.45
2018-09-29T06:05:38.586Z,99410.95
2018-09-29T06:07:50.780Z,99413.28
2018-09-29T06:10:03.090Z,99415.01
2018-09-29T06:12:15.294Z,99409.09
2018-09-29T06:14:27.522Z,99407.51
2018-09-29T06:16:39.803Z,99413.05
2018-09-29T06:18:52.175Z,99415.56
2018-09-29T06:21:05.034Z,99417.66
2018-09-29T06:23:23.236Z,99421.91
2018-09-29T06:25:39.077Z,99416.78
2018-09-29T06:27:51.360Z,99422.17
2018-09-29T06:30:03.972Z,99424.91
2018-09-29T06:32:16.175Z,99428.47
2018-09-29T06:34:28.387Z,99438.15
2018-09-29T06:36:40.674Z,99446.11
2018-09-29T06:38:52.899Z,99441.83
2018-09-29T06:41:05.175Z,99445.22
2018-09-29T06:43:17.390Z,99450.19
2018-09-29T06:45:29.632Z,99442.11
2018-09-29T06:47:42.038Z,99446.81
2018-09-29T06:49:54.347Z,99453.05
2018-09-29T06:52:06.639Z,99448.22
2018-09-29T06:54:18.899Z,99452.05
2018-09-29T06:56:31.151Z,99450.63
2018-09-29T06:58:43.472Z,99459.92
2018-09-29T07:00:55.738Z,99455.49
2018-09-29T07:03:08.013Z,99453.25
2018-09-29T07:05:20.226Z,99451.77
2018-09-29T07:07:32.437Z,99444.77
2018-09-29T07:09:45.138Z,99445.00
2018-09-29T07:11:57.403Z,99447.61
2018-09-29T07:14:09.682Z,99459.09
2018-09-29T07:16:21.994Z,99450.48
2018-09-29T07:18:34.266Z,99448.69
2018-09-29T07:20:46.506Z,99453.27
2018-09-29T07:22:58.746Z,99456.37
2018-09-29T07:25:10.953Z,99461.66
2018-09-29T07:27:23.231Z,99453.95
2018-09-29T07:29:35.467Z,99465.50
2018-09-29T07:31:47.720Z,99459.31
2018-09-29T07:33:59.981Z,99466.19
2018-09-29T07:36:12.255Z,99459.76
2018-09-29T07:38:24.494Z,99460.02
2018-09-29T07:40:36.706Z,99457.78
2018-09-29T07:42:48.979Z,99456.10
2018-09-29T07:45:01.247Z,99448.22
2018-09-29T07:47:13.482Z,99454.12
2018-09-29T07:49:25.741Z,99453.07
2018-09-29T07:51:37.960Z,99455.75
2018-09-29T07:53:50.208Z,99463.05
2018-09-29T07:56:02.520Z,99460.53
2018-09-29T07:58:14.772Z,99471.91
2018-09-29T08:00:27.080Z,99460.33
2018-09-29T08:02:39.394Z,99471.27
2018-09-29T08:04:51.664Z,99461.22
2018-09-29T08:07:03.894Z,99458.39
2018-09-29T08:09:16.174Z,99458.86
2018-09-29T08:11:28.444Z,99458.81
2018-09-29T08:13:40.776Z,99445.77
2018-09-29T08:15:53.035Z,99451.14
2018-09-29T08:18:05.343Z,99450.05
2018-09-29T08:20:17.582Z,99447.70
2018-09-29T08:22:29.933Z,99445.63
2018-09-29T08:24:42.268Z,99430.27
2018-09-29T08:26:54.486Z,99436.91
2018-09-29T08:29:06.688Z,99441.66
2018-09-29T08:31:19.528Z,99433.38
2018-09-29T08:33:31.792Z,99436.39
2018-09-29T08:35:44.215Z,99432.30
2018-09-29T08:37:56.642Z,99432.34
2018-09-29T08:40:08.830Z,99431.47
2018-09-29T08:42:21.020Z,99431.00
2018-09-29T08:44:33.298Z,99432.13
2018-09-29T08:46:45.581Z,99425.86
2018-09-29T08:48:57.890Z,99425.12
2018-09-29T08:51:10.208Z,99423.27
2018-09-29T08:53:22.508Z,99426.54
2018-09-29T08:55:34.671Z,99418.13
2018-09-29T08:57:46.866Z,99416.91
2018-09-29T08:59:59.135Z,99413.05
2018-09-29T09:02:11.390Z,99413.23
2018-09-29T09:04:23.675Z,99410.33
2018-09-29T09:06:35.918Z,99405.56
2018-09-29T09:08:48.151Z,99405.45
2018-09-29T09:11:00.451Z,99396.22
2018-09-29T09:13:12.671Z,99406.58
2018-09-29T09:15:24.946Z,99403.02
2018-09-29T09:17:37.178Z,99394.52
2018-09-29T09:19:49.395Z,99405.45
2018-09-29T09:22:01.688Z,99396.20
2018-09-29T09:24:13.962Z,99396.84
2018-09-29T09:26:26.510Z,99393.39
2018-09-29T09:28:38.858Z,99385.07
2018-09-29T09:30:51.084Z,99387.77
2018-09-29T09:33:03.322Z,99386.73
2018-09-29T09:35:15.591Z,99384.45
2018-09-29T09:37:27.820Z,99377.78
2018-09-29T09:39:40.095Z,99379.82
2018-09-29T09:41:52.424Z,99383.37
2018-09-29T09:44:04.915Z,99382.91
2018-09-29T09:46:17.155Z,99373.78
2018-09-29T09:48:29.442Z,99378.53
2018-09-29T09:50:41.659Z,99376.49
2018-09-29T09:52:54.173Z,99384.08
2018-09-29T09:55:06.415Z,99379.36
2018-09-29T09:57:18.624Z,99375.52
2018-09-29T09:59:30.928Z,99374.30
2018-09-29T10:01:48.891Z,99378.63
2018-09-29T10:04:01.159Z,99383.41
2018-09-29T10:06:13.429Z,99376.09
2018-09-29T10:08:25.659Z,99371.20
2018-09-29T10:10:37.927Z,99372.44
2018-09-29T10:12:50.187Z,99366.53
2018-09-29T10:15:02.492Z,99361.16
2018-09-29T10:17:14.780Z,99358.69
2018-09-29T10:19:27.052Z,99367.19
2018-09-29T10:21:39.368Z,99349.20
2018-09-29T10:23:51.634Z,99350.15
2018-09-29T10:26:03.986Z,99349.03
2018-09-29T10:28:16.276Z,99343.75
2018-09-29T10:30:28.517Z,99334.73
2018-09-29T10:32:40.791Z,99344.75
2018-09-29T10:34:53.020Z,99339.50
2018-09-29T10:37:05.283Z,99336.28
2018-09-29T10:39:17.499Z,99335.99
2018-09-29T10:41:29.706Z,99328.91
2018-09-29T10:43:41.941Z,99325.17
2018-09-29T10:45:54.190Z,99327.92
2018-09-29T10:48:06.475Z,99327.55
2018-09-29T10:50:24.527Z,99320.28
2018-09-29T10:52:36.783Z,99322.45
2018-09-29T10:54:49.039Z,99316.25
2018-09-29T10:57:01.253Z,99316.98
2018-09-29T10:59:13.598Z,99314.27
2018-09-29T11:01:25.856Z,99317.31
2018-09-29T11:03:38.192Z,99321.29
2018-09-29T11:05:50.525Z,99308.22
2018-09-29T11:08:02.789Z,99313.73
2018-09-29T11:10:15.044Z,99308.02
2018-09-29T11:12:27.324Z,99308.16
2018-09-29T11:14:45.604Z,99293.66
2018-09-29T11:16:58.146Z,99301.33
2018-09-29T11:19:10.351Z,99292.93
2018-09-29T11:21:22.611Z,99287.68
2018-09-29T11:23:35.542Z,99284.20
2018-09-29T11:25:47.763Z,99277.86
2018-09-29T11:28:00.030Z,99267.81
2018-09-29T11:30:12.263Z,99276.41
2018-09-29T11:32:24.544Z,99267.20
2018-09-29T11:34:36.759Z,99266.10
2018-09-29T11:36:49.065Z,99264.39
2018-09-29T11:39:01.313Z,99253.37
2018-09-29T11:41:13.642Z,99249.36
2018-09-29T11:43:26.000Z,99242.13
2018-09-29T11:45:38.621Z,99244.47
2018-09-29T11:48:01.627Z,99235.77
2018-09-29T11:50:13.968Z,99237.02
2018-09-29T11:52:26.207Z,99240.41
2018-09-29T11:54:38.483Z,99240.45
2018-09-29T11:56:50.723Z,99237.49
2018-09-29T11:59:03.053Z,99242.08
2018-09-29T12:01:15.339Z,99231.70
2018-09-29T12:03:27.610Z,99226.70
2018-09-29T12:05:39.903Z,99231.55
2018-09-29T12:07:52.258Z,99215.80
2018-09-29T12:10:04.569Z,99211.38
2018-09-29T12:12:16.792Z,99209.71
2018-09-29T12:14:31.000Z,99202.00
2018-09-29T12:16:43.317Z,99199.35
2018-09-29T12:18:55.590Z,99188.94
2018-09-29T12:21:07.912Z,99178.70
2018-09-29T12:23:20.134Z,99176.56
2018-09-29T12:25:32.351Z,99179.80
2018-09-29T12:27:44.963Z,99173.39
2018-09-29T12:29:57.300Z,99163.72
2018-09-29T12:32:09.499Z,99164.48
2018-09-29T12:34:21.771Z,99165.80
2018-09-29T12:36:34.022Z,99169.16
2018-09-29T12:38:46.240Z,99168.42
2018-09-29T12:40:58.454Z,99164.91
2018-09-29T12:43:10.713Z,99162.81
2018-09-29T12:45:23.002Z,99163.86
2018-09-29T12:47:35.291Z,99161.44
2018-09-29T12:49:47.492Z,99159.34
2018-09-29T12:51:59.824Z,99148.92
2018-09-29T12:54:12.017Z,99151.55
2018-09-29T12:56:24.539Z,99141.13
2018-09-29T12:58:36.736Z,99146.59
2018-09-29T13:00:49.037Z,99129.17
2018-09-29T13:03:01.263Z,99130.10
2018-09-29T13:05:13.535Z,99135.66
2018-09-29T13:07:25.764Z,99137.95
2018-09-29T13:09:38.655Z,99133.67
2018-09-29T13:11:50.880Z,99132.40
2018-09-29T13:14:03.249Z,99122.99
2018-09-29T13:16:15.454Z,99123.22
2018-09-29T13:18:27.705Z,99119.67
2018-09-29T13:20:39.984Z,99114.41
2018-09-29T13:22:52.233Z,99114.16
2018-09-29T13:25:04.499Z,99105.23
2018-09-29T13:27:16.800Z,99100.80
2018-09-29T13:29:29.105Z,99093.77
2018-09-29T13:31:41.374Z,99089.47
2018-09-29T13:33:53.602Z,99086.72
2018-09-29T13:36:05.836Z,99091.13
2018-09-29T13:38:18.031Z,99090.52
2018-09-29T13:40:30.296Z,99083.70
2018-09-29T13:42:42.567Z,99085.97
2018-09-29T13:44:55.005Z,99072.63
2018-09-29T13:47:07.280Z,99077.43
2018-09-29T13:49:19.616Z,99072.66
2018-09-29T13:51:32.402Z,99079.97
2018-09-29T13:53:44.664Z,99070.04
2018-09-29T13:55:56.928Z,99067.16
2018-09-29T13:58:09.214Z,99065.01
2018-09-29T14:00:21.460Z,99052.36
2018-09-29T14:02:33.735Z,99050.31
2018-09-29T14:04:46.018Z,99053.80
2018-09-29T14:06:58.215Z,99056.17
2018-09-29T14:09:10.697Z,99051.78
2018-09-29T14:11:22.983Z,99054.77
2018-09-29T14:13:35.225Z,99047.14
2018-09-29T14:15:47.481Z,99041.50
2018-09-29T14:17:59.740Z,99033.53
2018-09-29T14:20:12.049Z,99029.46
2018-09-29T14:22:24.270Z,99027.45
2018-09-29T14:24:36.443Z,99023.47
2018-09-29T14:26:48.816Z,99020.97
2018-09-29T14:29:01.039Z,99025.17
2018-09-29T14:31:13.308Z,99015.72
2018-09-29T14:33:25.552Z,99013.06
2018-09-29T14:35:37.848Z,99012.33
2018-09-29T14:37:50.111Z,99011.41
2018-09-29T14:40:02.289Z,99017.97
2018-09-29T14:42:14.523Z,99014.73
2018-09-29T14:44:26.695Z,99015.31
2018-09-29T14:46:38.967Z,99009.80
2018-09-29T14:48:51.175Z,98999.78
2018-09-29T14:51:03.407Z,99000.26
2018-09-29T14:53:15.647Z,99000.96
2018-09-29T14:55:27.903Z,99001.70
2018-09-29T14:57:40.146Z,98996.93
2018-09-29T14:59:52.362Z,99001.48
2018-09-29T15:02:04.572Z,98999.45
2018-09-29T15:04:16.883Z,99000.52
2018-09-29T15:06:29.251Z,99003.02
2018-09-29T15:08:41.677Z,99005.86
2018-09-29T15:10:54.059Z,99000.16
2018-09-29T15:13:06.139Z,98999.30
2018-09-29T15:15:18.387Z,99001.19
2018-09-29T15:17:30.600Z,98991.77
2018-09-29T15:19:42.860Z,98996.06
2018-09-29T15:21:55.108Z,98994.49
2018-09-29T15:24:07.318Z,98990.91
2018-09-29T15:26:19.588Z,98989.59
2018-09-29T15:28:31.879Z,98982.55
2018-09-29T15:30:44.192Z,98982.68
2018-09-29T15:32:56.402Z,98980.50
2018-09-29T15:35:08.754Z,98990.30
2018-09-29T15:37:20.973Z,98983.99
2018-09-29T15:39:33.230Z,98982.16
2018-09-29T15:41:45.475Z,98979.41
2018-09-29T15:43:57.727Z,98977.27
2018-09-29T15:46:09.987Z,98972.50
2018-09-29T15:48:22.227Z,98972.50
2018-09-29T15:50:34.466Z,98973.90
2018-09-29T15:52:46.935Z,98971.28
2018-09-29T15:54:59.221Z,98976.66
2018-09-29T15:57:11.462Z,98968.08
2018-09-29T15:59:23.737Z,98967.73
2018-09-29T16:01:35.973Z,98967.64
2018-09-29T16:03:48.251Z,98965.45
2018-09-29T16:06:00.687Z,98966.90
2018-09-29T16:08:12.974Z,98972.59
2018-09-29T16:10:25.199Z,98968.88
2018-09-29T16:12:37.480Z,98967.81
2018-09-29T16:14:49.752Z,98974.34
2018-09-29T16:17:02.033Z,98972.02
2018-09-29T16:19:14.289Z,98971.31
2018-09-29T16:21:26.690Z,98971.39
2018-09-29T16:23:38.947Z,98972.44
2018-09-29T16:25:51.219Z,98968.46
2018-09-29T16:28:03.538Z,98969.77
2018-09-29T16:30:15.807Z,98970.86
2018-09-29T16:32:28.046Z,98963.56
2018-09-29T16:34:40.283Z,98963.39
2018-09-29T16:36:52.607Z,98964.99
2018-09-29T16:39:07.867Z,98964.84
2018-09-29T16:41:20.207Z,98968.78
2018-09-29T16:43:32.544Z,98969.70
2018-09-29T16:45:44.790Z,98965.75
2018-09-29T16:47:57.020Z,98970.38
2018-09-29T16:50:09.281Z,98971.16
2018-09-29T16:52:21.503Z,98974.80
2018-09-29T16:54:33.727Z,98972.03
2018-09-29T16:56:45.954Z,98969.47
2018-09-29T16:58:58.208Z,98977.89
2018-09-29T17:01:10.503Z,98974.66
2018-09-29T17:03:22.886Z,98973.40
2018-09-29T17:05:35.119Z,98976.26
2018-09-29T17:07:47.439Z,98977.39
2018-09-29T17:09:59.758Z,98974.89
2018-09-29T17:12:12.012Z,98972.95
2018-09-29T17:14:24.343Z,98979.62
2018-09-29T17:16:36.620Z,98984.67
2018-09-29T17:18:48.877Z,98983.20
2018-09-29T17:21:01.225Z,98986.89
2018-09-29T17:23:13.466Z,98993.64
2018-09-29T17:25:25.767Z,98990.39
2018-09-29T17:27:38.289Z,98988.74
2018-09-29T17:29:50.550Z,98980.90
2018-09-29T17:32:02.838Z,98986.17
2018-09-29T17:34:15.126Z,98992.40
2018-09-29T17:36:27.425Z,98997.38
2018-09-29T17:38:39.700Z,98998.38
2018-09-29T17:40:52.012Z,98997.71
2018-09-29T17:43:04.273Z,99001.09
2018-09-29T17:45:16.587Z,99009.41
2018-09-29T17:47:28.834Z,99004.75
2018-09-29T17:49:41.103Z,99008.20
2018-09-29T17:51:53.447Z,99015.26
2018-09-29T17:54:05.707Z,99014.77
2018-09-29T17:56:18.023Z,99019.50
2018-09-29T17:58:30.459Z,99013.81
2018-09-29T18:00:42.803Z,99012.91
2018-09-29T18:02:55.025Z,99013.97
2018-09-29T18:05:07.338Z,99016.55
2018-09-29T18:07:19.615Z,99018.45
2018-09-29T18:09:31.851Z,99025.84
2018-09-29T18:11:44.109Z,99025.73
2018-09-29T18:13:56.335Z,99023.09
2018-09-29T18:16:08.578Z,99024.56
2018-09-29T18:18:20.826Z,99028.51
2018-09-29T18:20:33.219Z,99026.37
2018-09-29T18:22:45.485Z,99026.31
2018-09-29T18:24:57.772Z,99026.26
2018-09-29T18:27:10.411Z,99029.94
2018-09-29T18:29:22.623Z,99035.48
2018-09-29T18:31:34.947Z,99029.66
2018-09-29T18:33:47.202Z,99028.45
2018-09-29T18:35:59.481Z,99034.02
2018-09-29T18:38:11.750Z,99025.16
2018-09-29T18:40:24.000Z,99029.58
2018-09-29T18:42:36.342Z,99038.28
2018-09-29T18:44:48.642Z,99027.84
2018-09-29T18:47:00.947Z,99025.05
2018-09-29T18:49:13.185Z,99034.65
2018-09-29T18:51:25.404Z,99029.95
2018-09-29T18:53:37.683Z,99038.75
2018-09-29T18:55:49.968Z,99032.55
2018-09-29T18:58:02.295Z,99035.68
2018-09-29T19:00:14.593Z,99042.70
2018-09-29T19:02:26.841Z,99037.41
2018-09-29T19:04:39.134Z,99033.48
2018-09-29T19:06:51.370Z,99034.45
2018-09-29T19:09:05.386Z,99032.22
2018-09-29T19:11:17.644Z,99026.09
2018-09-29T19:13:29.892Z,99034.53
2018-09-29T19:15:42.128Z,99030.86
2018-09-29T19:17:54.350Z,99035.91
2018-09-29T19:20:06.635Z,99030.66
2018-09-29T19:22:18.855Z,99029.49
2018-09-29T19:24:31.185Z,99028.55
2018-09-29T19:26:43.538Z,99025.49
2018-09-29T19:28:55.776Z,99025.58
2018-09-29T19:31:08.070Z,99021.48
2018-09-29T19:33:20.268Z,99023.92
2018-09-29T19:35:32.567Z,99021.73
2018-09-29T19:37:44.834Z,99028.33
2018-09-29T19:39:57.088Z,99027.45
2018-09-29T19:42:09.378Z,99022.90
2018-09-29T19:44:21.639Z,99026.03
2018-09-29T19:46:33.899Z,99028.88
2018-09-29T19:48:46.160Z,99026.75
2018-09-29T19:50:58.379Z,99020.34
2018-09-29T19:53:10.672Z,99025.90
2018-09-29T19:55:22.855Z,99021.38
2018-09-29T19:57:35.084Z,99023.63
2018-09-29T19:59:47.445Z,99022.25
2018-09-29T20:01:59.742Z,99015.02
2018-09-29T20:04:12.104Z,99012.42
2018-09-29T20:06:24.398Z,99012.05
2018-09-29T20:08:36.679Z,99016.05
2018-09-29T20:10:49.023Z,99013.83
2018-09-29T20:13:01.316Z,99014.53
2018-09-29T20:15:13.581Z,99013.61
2018-09-29T20:17:25.831Z,99014.72
2018-09-29T20:19:38.115Z,99011.02
2018-09-29T20:21:50.387Z,99010.19
2018-09-29T20:24:02.650Z,99015.30
2018-09-29T20:26:14.918Z,99016.91
2018-09-29T20:28:27.221Z,99009.64
2018-09-29T20:30:39.603Z,99011.17
2018-09-29T20:32:51.791Z,99016.62
2018-09-29T20:35:04.006Z,99019.06
2018-09-29T20:37:16.310Z,99020.09
2018-09-29T20:39:28.528Z,99015.09
2018-09-29T20:41:41.560Z,99012.73
2018-09-29T20:43:53.832Z,99015.36
2018-09-29T20:46:06.583Z,99013.77
2018-09-29T20:48:19.158Z,99010.61
2018-09-29T20:50:31.368Z,99012.55
2018-09-29T20:52:43.623Z,99010.30
2018-09-29T20:54:55.906Z,99016.12
2018-09-29T20:57:08.114Z,99021.91
2018-09-29T20:59:20.326Z,99013.70
2018-09-29T21:01:32.640Z,99018.34
2018-09-29T21:03:44.822Z,99023.91
2018-09-29T21:05:57.060Z,99020.39
2018-09-29T21:08:09.739Z,99021.68
2018-09-29T21:10:22.008Z,99022.03
2018-09-29T21:12:34.219Z,99021.23
2018-09-29T21:14:46.721Z,99017.63
2018-09-29T21:16:58.924Z,99027.77
2018-09-29T21:19:11.217Z,99017.52
2018-09-29T21:21:23.443Z,99014.31
2018-09-29T21:23:35.732Z,99016.20
2018-09-29T21:25:48.003Z,99012.31
2018-09-29T21:28:00.278Z,99008.23
2018-09-29T21:30:12.520Z,99001.70
2018-09-29T21:32:24.827Z,99000.58
2018-09-29T21:34:37.003Z,99006.19
2018-09-29T21:36:49.329Z,99003.72
2018-09-29T21:39:01.543Z,98999.03
2018-09-29T21:41:13.790Z,99003.36
2018-09-29T21:43:26.019Z,99002.14
2018-09-29T21:45:38.354Z,99004.83
2018-09-29T21:47:50.567Z,99004.41
2018-09-29T21:50:02.769Z,99006.77
2018-09-29T21:52:15.001Z,99003.94
2018-09-29T21:54:27.195Z,99006.48
2018-09-29T21:56:39.401Z,99003.84
2018-09-29T21:58:51.666Z,99004.67
2018-09-29T22:01:09.382Z,98998.84
2018-09-29T22:03:21.599Z,98998.94
2018-09-29T22:05:33.867Z,98998.30
2018-09-29T22:07:46.079Z,98997.36
2018-09-29T22:09:58.284Z,98992.75
2018-09-29T22:12:10.541Z,98984.16
2018-09-29T22:14:22.807Z,98987.87
2018-09-29T22:16:35.044Z,98991.16
2018-09-29T22:18:47.310Z,98986.77
2018-09-29T22:20:59.634Z,98981.83
2018-09-29T22:23:11.815Z,98978.87
2018-09-29T22:25:24.002Z,98978.87
2018-09-29T22:27:36.228Z,98978.87
2018-09-29T22:29:48.444Z,98982.13
2018-09-29T22:32:00.670Z,98982.67
2018-09-29T22:34:12.867Z,98979.86
2018-09-29T22:36:25.202Z,98976.31
2018-09-29T22:38:37.419Z,98977.22
2018-09-29T22:40:49.628Z,98978.77
2018-09-29T22:43:01.898Z,98979.02
2018-09-29T22:45:14.102Z,98979.02
2018-09-29T22:47:26.367Z,98968.42
2018-09-29T22:49:38.565Z,98964.16
2018-09-29T22:51:50.800Z,98965.45
2018-09-29T22:54:03.319Z,98966.93
2018-09-29T22:56:15.500Z,98967.53
2018-09-29T22:58:27.812Z,98966.72
2018-09-29T23:00:40.135Z,98959.82
2018-09-29T23:02:52.375Z,98957.78
2018-09-29T23:05:04.634Z,98962.95
2018-09-29T23:07:16.836Z,98958.33
2018-09-29T23:09:29.104Z,98952.48
2018-09-29T23:11:41.480Z,98955.21
2018-09-29T23:13:53.680Z,98957.37
2018-09-29T23:16:05.974Z,98954.79
2018-09-29T23:18:18.154Z,98956.37
2018-09-29T23:20:30.379Z,98946.60
2018-09-29T23:22:42.581Z,98943.72
2018-09-29T23:24:54.794Z,98943.33
2018-09-29T23:27:07.012Z,98941.69
2018-09-29T23:29:19.195Z,98937.58
2018-09-29T23:31:31.397Z,98934.42
2018-09-29T23:33:43.641Z,98935.89
2018-09-29T23:35:55.843Z,98930.52
2018-09-29T23:38:08.072Z,98931.80
2018-09-29T23:40:20.271Z,98923.20
2018-09-29T23:42:32.609Z,98925.11
2018-09-29T23:44:44.878Z,98917.92
2018-09-29T23:46:57.075Z,98920.28
2018-09-29T23:49:09.275Z,98918.09
2018-09-29T23:51:21.458Z,98918.87
2018-09-29T23:53:33.667Z,98918.03
2018-09-29T23:55:45.898Z,98913.38
2018-09-29T23:57:58.146Z,98911.64
